MKY weather

Mackay Airport
Mackay, Queensland, Australia

Public forecast

Using degrees Celsius for public forecast. Weather courtesy of forecast.io.

METAR (pilot weather report)

Retrieved 2019/01/22 12:00 UTC (15 minutes ago):

YBMK 221200Z AUTO 12010KT 9999 // SCT027 26/21 Q1014

TAF (pilot weather forecast)

Closest forecast is Hamilton Island Airport, 50.5 nm (93.5 km) NNW. Retrieved 2019/01/22 12:00 UTC (15 minutes ago):

TAF YBHM 221101Z 2212/2224 11018KT 9999 BKN025